createdAt,value
2017-04-23T00:00:14.379Z,956.62
2017-04-23T00:01:14.363Z,956.61
2017-04-23T00:02:14.356Z,956.59
2017-04-23T00:03:14.332Z,956.56
2017-04-23T00:04:14.317Z,956.55
2017-04-23T00:05:14.302Z,956.56
2017-04-23T00:06:14.287Z,956.53
2017-04-23T00:07:14.271Z,956.56
2017-04-23T00:08:14.256Z,956.51
2017-04-23T00:09:14.242Z,956.48
2017-04-23T00:10:14.226Z,956.5
2017-04-23T00:11:14.211Z,956.52
2017-04-23T00:12:14.195Z,956.47
2017-04-23T00:13:14.180Z,956.48
2017-04-23T00:14:14.164Z,956.51
2017-04-23T00:15:14.150Z,956.51
2017-04-23T00:16:14.134Z,956.49
2017-04-23T00:17:14.119Z,956.52
2017-04-23T00:18:14.105Z,956.51
2017-04-23T00:19:14.090Z,956.49
2017-04-23T00:20:14.073Z,956.49
2017-04-23T00:21:14.058Z,956.48
2017-04-23T00:22:14.042Z,956.49
2017-04-23T00:23:14.028Z,956.51
2017-04-23T00:24:14.013Z,956.48
2017-04-23T00:25:13.996Z,956.54
2017-04-23T00:26:13.982Z,956.51
2017-04-23T00:27:13.965Z,956.47
2017-04-23T00:28:13.953Z,956.49
2017-04-23T00:29:13.935Z,956.5
2017-04-23T00:30:13.921Z,956.5
2017-04-23T00:31:13.906Z,956.49
2017-04-23T00:32:13.891Z,956.52
2017-04-23T00:33:13.875Z,956.44
2017-04-23T00:34:13.861Z,956.46
2017-04-23T00:35:13.845Z,956.5
2017-04-23T00:36:13.828Z,956.46
2017-04-23T00:37:13.815Z,956.49
2017-04-23T00:38:13.799Z,956.49
2017-04-23T00:39:13.783Z,956.49
2017-04-23T00:40:13.770Z,956.46
2017-04-23T00:41:13.754Z,956.51
2017-04-23T00:42:13.739Z,956.44
2017-04-23T00:43:13.723Z,956.46
2017-04-23T00:44:13.707Z,956.5
2017-04-23T00:45:13.693Z,956.49
2017-04-23T00:46:13.679Z,956.45
2017-04-23T00:47:13.662Z,956.48
2017-04-23T00:48:13.648Z,956.47
2017-04-23T00:49:13.633Z,956.5
2017-04-23T00:50:13.616Z,956.49
2017-04-23T00:51:13.602Z,956.49
2017-04-23T00:52:13.585Z,956.49
2017-04-23T00:53:13.571Z,956.47
2017-04-23T00:54:13.557Z,956.5
2017-04-23T00:55:13.540Z,956.48
2017-04-23T00:56:13.525Z,956.48
2017-04-23T00:57:13.511Z,956.49
2017-04-23T00:58:13.494Z,956.46
2017-04-23T00:59:13.480Z,956.52
2017-04-23T01:00:13.464Z,956.51
2017-04-23T01:01:13.450Z,956.53
2017-04-23T01:02:13.433Z,956.5
2017-04-23T01:03:13.420Z,956.52
2017-04-23T01:04:13.403Z,956.45
2017-04-23T01:05:13.387Z,956.46
2017-04-23T01:06:13.371Z,956.48
2017-04-23T01:07:13.363Z,956.46
2017-04-23T01:08:13.343Z,956.49
2017-04-23T01:09:13.325Z,956.48
2017-04-23T01:10:13.310Z,956.47
2017-04-23T01:11:13.296Z,956.46
2017-04-23T01:12:13.280Z,956.49
2017-04-23T01:13:13.264Z,956.47
2017-04-23T01:14:13.253Z,956.49
2017-04-23T01:15:13.234Z,956.48
2017-04-23T01:16:13.219Z,956.51
2017-04-23T01:17:13.202Z,956.45
2017-04-23T01:18:13.189Z,956.44
2017-04-23T01:19:13.173Z,956.44
2017-04-23T01:20:13.158Z,956.44
2017-04-23T01:21:13.142Z,956.48
2017-04-23T01:22:13.127Z,956.45
2017-04-23T01:23:13.112Z,956.43
2017-04-23T01:24:13.096Z,956.44
2017-04-23T01:25:13.080Z,956.44
2017-04-23T01:26:13.065Z,956.44
2017-04-23T01:27:13.049Z,956.42
2017-04-23T01:28:13.034Z,956.47
2017-04-23T01:29:13.018Z,956.45
2017-04-23T01:30:13.003Z,956.45
2017-04-23T01:31:12.987Z,956.44
2017-04-23T01:32:12.972Z,956.42
2017-04-23T01:33:12.957Z,956.42
2017-04-23T01:34:12.942Z,956.42
2017-04-23T01:35:12.926Z,956.41
2017-04-23T01:36:12.960Z,956.39
2017-04-23T01:37:12.942Z,956.38
2017-04-23T01:38:12.943Z,956.39
2017-04-23T01:39:12.909Z,956.4
2017-04-23T01:40:12.893Z,956.42
2017-04-23T01:41:12.834Z,956.36
2017-04-23T01:42:12.817Z,956.41
2017-04-23T01:43:12.803Z,956.39
2017-04-23T01:44:12.787Z,956.39
2017-04-23T01:45:12.772Z,956.46
2017-04-23T01:46:12.757Z,956.36
2017-04-23T01:47:12.741Z,956.39
2017-04-23T01:48:12.725Z,956.37
2017-04-23T01:49:12.708Z,956.39
2017-04-23T01:50:12.695Z,956.41
2017-04-23T01:51:12.678Z,956.4
2017-04-23T01:52:12.664Z,956.4
2017-04-23T01:53:12.648Z,956.37
2017-04-23T01:54:12.632Z,956.37
2017-04-23T01:55:12.616Z,956.38
2017-04-23T01:56:12.602Z,956.41
2017-04-23T01:57:12.590Z,956.4
2017-04-23T01:58:12.570Z,956.39
2017-04-23T01:59:12.555Z,956.4
2017-04-23T02:00:12.538Z,956.38
2017-04-23T02:01:12.523Z,956.42
2017-04-23T02:02:12.508Z,956.49
2017-04-23T02:03:12.492Z,956.42
2017-04-23T02:04:12.479Z,956.46
2017-04-23T02:05:12.460Z,956.39
2017-04-23T02:06:12.447Z,956.42
2017-04-23T02:07:12.431Z,956.43
2017-04-23T02:08:12.414Z,956.46
2017-04-23T02:09:12.400Z,956.43
2017-04-23T02:10:12.383Z,956.45
2017-04-23T02:11:12.369Z,956.45
2017-04-23T02:12:12.352Z,956.44
2017-04-23T02:13:12.336Z,956.44
2017-04-23T02:14:12.324Z,956.44
2017-04-23T02:15:12.306Z,956.45
2017-04-23T02:16:12.299Z,956.42
2017-04-23T02:17:12.275Z,956.45
2017-04-23T02:18:12.261Z,956.45
2017-04-23T02:19:12.244Z,956.44
2017-04-23T02:20:12.228Z,956.42
2017-04-23T02:21:12.215Z,956.4
2017-04-23T02:22:12.196Z,956.43
2017-04-23T02:23:12.183Z,956.44
2017-04-23T02:24:12.166Z,956.44
2017-04-23T02:25:12.151Z,956.39
2017-04-23T02:26:12.135Z,956.37
2017-04-23T02:27:12.119Z,956.42
2017-04-23T02:28:12.105Z,956.43
2017-04-23T02:29:12.089Z,956.44
2017-04-23T02:30:12.074Z,956.43
2017-04-23T02:31:12.056Z,956.45
2017-04-23T02:32:12.041Z,956.41
2017-04-23T02:33:12.026Z,956.43
2017-04-23T02:34:12.012Z,956.41
2017-04-23T02:35:12.011Z,956.4
2017-04-23T02:36:11.997Z,956.41
2017-04-23T02:37:11.980Z,956.38
2017-04-23T02:38:11.966Z,956.38
2017-04-23T02:39:11.949Z,956.42
2017-04-23T02:40:11.933Z,956.42
2017-04-23T02:41:11.919Z,956.43
2017-04-23T02:42:11.903Z,956.41
2017-04-23T02:43:11.887Z,956.43
2017-04-23T02:44:11.870Z,956.42
2017-04-23T02:45:11.856Z,956.43
2017-04-23T02:46:11.840Z,956.44
2017-04-23T02:47:11.824Z,956.43
2017-04-23T02:48:11.806Z,956.47
2017-04-23T02:49:11.794Z,956.39
2017-04-23T02:50:11.777Z,956.43
2017-04-23T02:51:11.762Z,956.5
2017-04-23T02:52:11.745Z,956.43
2017-04-23T02:53:11.730Z,956.44
2017-04-23T02:54:11.714Z,956.5
2017-04-23T02:55:11.698Z,956.44
2017-04-23T02:56:11.682Z,956.48
2017-04-23T02:57:11.666Z,956.46
2017-04-23T02:58:11.652Z,956.43
2017-04-23T02:59:11.637Z,956.44
2017-04-23T03:00:11.619Z,956.41
2017-04-23T03:01:11.604Z,956.43
2017-04-23T03:02:11.588Z,956.45
2017-04-23T03:03:11.572Z,956.4
2017-04-23T03:04:11.557Z,956.4
2017-04-23T03:05:11.540Z,956.45
2017-04-23T03:06:11.524Z,956.44
2017-04-23T03:07:11.510Z,956.46
2017-04-23T03:08:11.492Z,956.41
2017-04-23T03:09:11.478Z,956.47
2017-04-23T03:10:11.462Z,956.48
2017-04-23T03:11:11.448Z,956.43
2017-04-23T03:12:11.429Z,956.48
2017-04-23T03:13:11.415Z,956.38
2017-04-23T03:14:11.400Z,956.46
2017-04-23T03:15:11.383Z,956.48
2017-04-23T03:16:11.367Z,956.49
2017-04-23T03:17:11.352Z,956.5
2017-04-23T03:18:11.335Z,956.42
2017-04-23T03:19:11.320Z,956.53
2017-04-23T03:20:11.304Z,956.5
2017-04-23T03:21:11.289Z,956.52
2017-04-23T03:22:11.272Z,956.48
2017-04-23T03:23:11.256Z,956.49
2017-04-23T03:24:11.241Z,956.5
2017-04-23T03:25:11.225Z,956.5
2017-04-23T03:26:11.215Z,956.51
2017-04-23T03:27:11.193Z,956.51
2017-04-23T03:28:11.179Z,956.52
2017-04-23T03:29:11.162Z,956.56
2017-04-23T03:30:11.147Z,956.49
2017-04-23T03:31:11.131Z,956.49
2017-04-23T03:32:11.114Z,956.55
2017-04-23T03:33:11.100Z,956.55
2017-04-23T03:34:11.083Z,956.56
2017-04-23T03:35:11.068Z,956.52
2017-04-23T03:36:11.052Z,956.58
2017-04-23T03:37:11.038Z,956.53
2017-04-23T03:38:11.019Z,956.51
2017-04-23T03:39:11.004Z,956.59
2017-04-23T03:40:10.990Z,956.53
2017-04-23T03:41:10.974Z,956.54
2017-04-23T03:42:10.957Z,956.52
2017-04-23T03:43:10.941Z,956.6
2017-04-23T03:44:10.926Z,956.63
2017-04-23T03:45:10.913Z,956.58
2017-04-23T03:46:10.894Z,956.52
2017-04-23T03:47:10.880Z,956.65
2017-04-23T03:48:10.864Z,956.59
2017-04-23T03:49:10.848Z,956.64
2017-04-23T03:50:10.833Z,956.62
2017-04-23T03:51:10.816Z,956.56
2017-04-23T03:52:10.801Z,956.65
2017-04-23T03:53:10.784Z,956.69
2017-04-23T03:54:10.769Z,956.63
2017-04-23T03:55:10.754Z,956.69
2017-04-23T03:56:10.736Z,956.7
2017-04-23T03:57:10.723Z,956.71
2017-04-23T03:58:10.706Z,956.7
2017-04-23T03:59:10.696Z,956.66
2017-04-23T04:00:10.674Z,956.67
2017-04-23T04:01:10.659Z,956.66
2017-04-23T04:02:10.643Z,956.71
2017-04-23T04:03:10.626Z,956.67
2017-04-23T04:04:10.612Z,956.7
2017-04-23T04:05:10.595Z,956.67
2017-04-23T04:06:10.581Z,956.72
2017-04-23T04:07:10.564Z,956.74
2017-04-23T04:08:10.549Z,956.77
2017-04-23T04:09:10.533Z,956.75
2017-04-23T04:10:10.517Z,956.81
2017-04-23T04:11:10.502Z,956.78
2017-04-23T04:12:10.487Z,956.79
2017-04-23T04:13:10.471Z,956.77
2017-04-23T04:14:10.456Z,956.82
2017-04-23T04:15:10.439Z,956.77
2017-04-23T04:16:10.424Z,956.84
2017-04-23T04:17:10.408Z,956.82
2017-04-23T04:18:10.392Z,956.85
2017-04-23T04:19:10.376Z,956.83
2017-04-23T04:20:10.361Z,956.84
2017-04-23T04:21:10.345Z,956.86
2017-04-23T04:22:10.329Z,956.84
2017-04-23T04:23:10.314Z,956.87
2017-04-23T04:24:10.297Z,956.91
2017-04-23T04:25:10.282Z,956.86
2017-04-23T04:26:10.266Z,956.89
2017-04-23T04:27:10.251Z,956.85
2017-04-23T04:28:10.235Z,956.89
2017-04-23T04:29:10.218Z,956.9
2017-04-23T04:30:10.204Z,956.9
2017-04-23T04:31:10.186Z,956.92
2017-04-23T04:32:10.170Z,956.96
2017-04-23T04:33:10.154Z,956.95
2017-04-23T04:34:10.139Z,956.94
2017-04-23T04:35:10.123Z,956.95
2017-04-23T04:36:10.107Z,956.93
2017-04-23T04:37:10.091Z,956.97
2017-04-23T04:38:10.076Z,956.96
2017-04-23T04:39:10.061Z,956.97
2017-04-23T04:40:10.044Z,957.02
2017-04-23T04:41:10.028Z,956.98
2017-04-23T04:42:10.014Z,957.01
2017-04-23T04:43:09.996Z,956.99
2017-04-23T04:44:09.980Z,956.96
2017-04-23T04:45:09.966Z,957.04
2017-04-23T04:46:09.950Z,957.01
2017-04-23T04:47:09.931Z,957.07
2017-04-23T04:48:09.917Z,957.05
2017-04-23T04:49:09.903Z,957.04
2017-04-23T04:50:09.886Z,957.09
2017-04-23T04:51:09.869Z,957.1
2017-04-23T04:52:09.854Z,957.09
2017-04-23T04:53:09.839Z,957.13
2017-04-23T04:54:09.822Z,957.12
2017-04-23T04:55:09.806Z,957.18
2017-04-23T04:56:09.791Z,957.17
2017-04-23T04:57:09.775Z,957.14
2017-04-23T04:58:09.761Z,957.16
2017-04-23T04:59:09.744Z,957.16
2017-04-23T05:00:09.728Z,957.11
2017-04-23T05:01:09.711Z,957.19
2017-04-23T05:02:09.696Z,957.24
2017-04-23T05:03:09.680Z,957.23
2017-04-23T05:04:09.666Z,957.21
2017-04-23T05:05:09.649Z,957.28
2017-04-23T05:06:09.634Z,957.27
2017-04-23T05:07:09.618Z,957.31
2017-04-23T05:08:09.602Z,957.32
2017-04-23T05:09:09.587Z,957.32
2017-04-23T05:10:09.572Z,957.32
2017-04-23T05:11:09.554Z,957.32
2017-04-23T05:12:09.539Z,957.32
2017-04-23T05:13:09.523Z,957.31
2017-04-23T05:14:09.508Z,957.34
2017-04-23T05:15:09.491Z,957.33
2017-04-23T05:16:09.475Z,957.38
2017-04-23T05:17:09.461Z,957.38
2017-04-23T05:18:09.446Z,957.41
2017-04-23T05:19:09.429Z,957.39
2017-04-23T05:20:09.413Z,957.39
2017-04-23T05:21:09.397Z,957.44
2017-04-23T05:22:09.383Z,957.43
2017-04-23T05:23:09.371Z,957.41
2017-04-23T05:24:09.350Z,957.39
2017-04-23T05:25:09.336Z,957.44
2017-04-23T05:26:09.319Z,957.46
2017-04-23T05:27:09.304Z,957.48
2017-04-23T05:28:09.289Z,957.52
2017-04-23T05:29:09.272Z,957.54
2017-04-23T05:30:09.256Z,957.48
2017-04-23T05:31:09.241Z,957.44
2017-04-23T05:32:09.225Z,957.52
2017-04-23T05:33:09.211Z,957.53
2017-04-23T05:34:09.194Z,957.51
2017-04-23T05:35:09.179Z,957.54
2017-04-23T05:36:09.162Z,957.52
2017-04-23T05:37:09.147Z,957.55
2017-04-23T05:38:09.132Z,957.55
2017-04-23T05:39:09.117Z,957.56
2017-04-23T05:40:09.100Z,957.54
2017-04-23T05:41:09.087Z,957.56
2017-04-23T05:42:09.069Z,957.57
2017-04-23T05:43:09.056Z,957.59
2017-04-23T05:44:09.040Z,957.61
2017-04-23T05:45:09.024Z,957.62
2017-04-23T05:46:09.008Z,957.63
2017-04-23T05:47:08.992Z,957.64
2017-04-23T05:48:08.977Z,957.68
2017-04-23T05:49:08.963Z,957.65
2017-04-23T05:50:08.979Z,957.67
2017-04-23T05:51:08.931Z,957.63
2017-04-23T05:52:08.915Z,957.72
2017-04-23T05:53:08.899Z,957.7
2017-04-23T05:54:08.885Z,957.7
2017-04-23T05:55:08.868Z,957.72
2017-04-23T05:56:08.852Z,957.69
2017-04-23T05:57:08.837Z,957.76
2017-04-23T05:58:08.822Z,957.73
2017-04-23T05:59:08.807Z,957.7
2017-04-23T06:00:08.791Z,957.72
2017-04-23T06:01:08.776Z,957.8
2017-04-23T06:02:08.760Z,957.73
2017-04-23T06:03:08.747Z,957.76
2017-04-23T06:04:08.729Z,957.71
2017-04-23T06:05:08.715Z,957.75
2017-04-23T06:06:08.703Z,957.74
2017-04-23T06:07:08.684Z,957.76
2017-04-23T06:08:08.669Z,957.77
2017-04-23T06:09:08.657Z,957.72
2017-04-23T06:10:08.637Z,957.75
2017-04-23T06:11:08.623Z,957.75
2017-04-23T06:12:08.607Z,957.79
2017-04-23T06:13:08.593Z,957.78
2017-04-23T06:14:08.577Z,957.81
2017-04-23T06:15:08.561Z,957.81
2017-04-23T06:16:08.546Z,957.83
2017-04-23T06:17:08.530Z,957.81
2017-04-23T06:18:08.514Z,957.8
2017-04-23T06:19:08.502Z,957.81
2017-04-23T06:20:08.485Z,957.81
2017-04-23T06:21:08.471Z,957.81
2017-04-23T06:22:08.455Z,957.79
2017-04-23T06:23:08.440Z,957.81
2017-04-23T06:24:08.425Z,957.82
2017-04-23T06:25:08.411Z,957.83
2017-04-23T06:26:08.394Z,957.79
2017-04-23T06:27:08.382Z,957.84
2017-04-23T06:28:08.364Z,957.82
2017-04-23T06:29:08.352Z,957.84
2017-04-23T06:30:08.335Z,957.86
2017-04-23T06:31:08.321Z,957.87
2017-04-23T06:32:08.306Z,957.86
2017-04-23T06:33:08.291Z,957.87
2017-04-23T06:34:08.275Z,957.92
2017-04-23T06:35:08.262Z,957.9
2017-04-23T06:36:08.246Z,957.9
2017-04-23T06:37:08.230Z,957.91
2017-04-23T06:38:08.215Z,957.89
2017-04-23T06:39:08.203Z,957.88
2017-04-23T06:40:08.186Z,957.9
2017-04-23T06:41:08.172Z,957.91
2017-04-23T06:42:08.156Z,957.95
2017-04-23T06:43:08.143Z,957.88
2017-04-23T06:44:08.126Z,957.94
2017-04-23T06:45:08.112Z,957.94
2017-04-23T06:46:08.096Z,957.97
2017-04-23T06:47:08.082Z,957.96
2017-04-23T06:48:08.067Z,957.99
2017-04-23T06:49:08.053Z,957.94
2017-04-23T06:50:08.038Z,957.98
2017-04-23T06:51:08.022Z,957.97
2017-04-23T06:52:08.007Z,957.96
2017-04-23T06:53:07.995Z,957.95
2017-04-23T06:54:07.979Z,957.96
2017-04-23T06:55:07.963Z,957.96
2017-04-23T06:56:07.949Z,957.96
2017-04-23T06:57:07.934Z,957.96
2017-04-23T06:58:07.921Z,957.97
2017-04-23T06:59:07.905Z,957.96
2017-04-23T07:00:07.891Z,957.91
2017-04-23T07:01:07.875Z,957.96
2017-04-23T07:02:07.861Z,958.01
2017-04-23T07:03:07.847Z,957.99
2017-04-23T07:04:07.833Z,957.97
2017-04-23T07:05:07.818Z,958
2017-04-23T07:06:07.804Z,957.99
2017-04-23T07:07:07.788Z,958
2017-04-23T07:08:07.774Z,958
2017-04-23T07:09:07.762Z,957.96
2017-04-23T07:10:07.751Z,957.97
2017-04-23T19:19:15.482Z,958.56
2017-04-23T19:20:15.463Z,958.57
2017-04-23T19:21:15.444Z,958.61
2017-04-23T19:22:15.426Z,958.65
2017-04-23T19:23:15.410Z,958.64
2017-04-23T19:24:15.392Z,958.62
2017-04-23T19:25:15.376Z,958.62
2017-04-23T19:26:15.358Z,958.61
2017-04-23T19:27:15.343Z,958.6
2017-04-23T19:28:15.327Z,958.67
2017-04-23T19:29:15.310Z,958.66
2017-04-23T19:30:15.298Z,958.61
2017-04-23T19:31:15.280Z,958.63
2017-04-23T19:32:15.264Z,958.64
2017-04-23T19:33:15.248Z,958.67
2017-04-23T19:34:15.234Z,958.69
2017-04-23T19:35:15.218Z,958.74
2017-04-23T19:36:15.204Z,958.69
2017-04-23T19:37:15.188Z,958.69
2017-04-23T19:38:15.172Z,958.7
2017-04-23T19:39:15.161Z,958.73
2017-04-23T19:40:15.144Z,958.69
2017-04-23T19:41:15.129Z,958.68
2017-04-23T19:42:15.115Z,958.7
2017-04-23T19:43:15.102Z,958.71
2017-04-23T19:44:15.085Z,958.7
2017-04-23T19:45:15.072Z,958.73
2017-04-23T19:46:15.055Z,958.67
2017-04-23T19:47:15.042Z,958.69
2017-04-23T19:48:15.029Z,958.7
2017-04-23T19:49:15.013Z,958.7
2017-04-23T19:50:15.000Z,958.67
2017-04-23T19:51:14.985Z,958.71
2017-04-23T19:52:14.975Z,958.69
2017-04-23T19:53:14.957Z,958.7
2017-04-23T19:54:14.944Z,958.73
2017-04-23T19:55:14.929Z,958.7
2017-04-23T19:56:14.913Z,958.72
2017-04-23T19:57:14.901Z,958.77
2017-04-23T19:58:14.887Z,958.76
2017-04-23T19:59:14.871Z,958.72
2017-04-23T20:00:14.859Z,958.76
2017-04-23T20:01:14.844Z,958.8
2017-04-23T20:02:14.830Z,958.72
2017-04-23T20:03:14.816Z,958.7
2017-04-23T20:04:14.802Z,958.78
2017-04-23T20:05:14.788Z,958.73
2017-04-23T20:06:14.774Z,958.73
2017-04-23T20:07:14.759Z,958.75
2017-04-23T20:08:14.746Z,958.77
2017-04-23T20:09:14.732Z,958.79
2017-04-23T20:10:14.717Z,958.76
2017-04-23T20:11:14.704Z,958.76
2017-04-23T20:12:14.690Z,958.76
2017-04-23T20:13:14.675Z,958.77
2017-04-23T20:14:14.663Z,958.75
2017-04-23T20:15:14.649Z,958.79
2017-04-23T20:16:14.636Z,958.8
2017-04-23T20:17:14.621Z,958.82
2017-04-23T20:18:14.608Z,958.83
2017-04-23T20:19:14.593Z,958.84
2017-04-23T20:20:14.580Z,958.83
2017-04-23T20:21:14.566Z,958.79
2017-04-23T20:22:14.552Z,958.84
2017-04-23T20:23:14.538Z,958.82
2017-04-23T20:24:14.523Z,958.77
2017-04-23T20:25:14.511Z,958.78
2017-04-23T20:26:14.495Z,958.78
2017-04-23T20:27:14.483Z,958.76
2017-04-23T20:28:14.469Z,958.77
2017-04-23T20:29:14.454Z,958.75
2017-04-23T20:30:14.441Z,958.75
2017-04-23T20:31:14.428Z,958.81
2017-04-23T20:32:14.413Z,958.78
2017-04-23T20:33:14.400Z,958.77
2017-04-23T20:34:14.386Z,958.79
2017-04-23T20:35:14.371Z,958.83
2017-04-23T20:36:14.357Z,958.81
2017-04-23T20:37:14.344Z,958.79
2017-04-23T20:38:14.330Z,958.85
2017-04-23T20:39:14.317Z,958.82
2017-04-23T20:40:14.303Z,958.82
2017-04-23T20:41:14.289Z,958.86
2017-04-23T20:42:14.275Z,958.85
2017-04-23T20:43:14.262Z,958.87
2017-04-23T20:44:14.248Z,958.85
2017-04-23T20:45:14.234Z,958.87
2017-04-23T20:46:14.219Z,958.84
2017-04-23T20:47:14.203Z,958.83
2017-04-23T20:48:14.191Z,958.85
2017-04-23T20:49:14.177Z,958.83
2017-04-23T20:50:14.162Z,958.85
2017-04-23T20:51:14.151Z,958.83
2017-04-23T20:52:14.143Z,958.81
2017-04-23T20:53:14.123Z,958.83
2017-04-23T20:54:14.109Z,958.83
2017-04-23T20:55:14.095Z,958.81
2017-04-23T20:56:14.081Z,958.81
2017-04-23T20:57:14.068Z,958.81
2017-04-23T20:58:14.054Z,958.79
2017-04-23T20:59:14.040Z,958.82
2017-04-23T21:00:14.026Z,958.76
2017-04-23T21:01:14.012Z,958.75
2017-04-23T21:02:13.998Z,958.73
2017-04-23T21:03:13.984Z,958.76
2017-04-23T21:04:13.970Z,958.79
2017-04-23T21:05:13.978Z,958.76
2017-04-23T21:06:13.943Z,958.78
2017-04-23T21:07:13.930Z,958.81
2017-04-23T21:08:13.915Z,958.8
2017-04-23T21:09:13.903Z,958.79
2017-04-23T21:10:13.888Z,958.8
2017-04-23T21:11:13.876Z,958.75
2017-04-23T21:12:13.860Z,958.74
2017-04-23T21:13:13.848Z,958.77
2017-04-23T21:14:13.837Z,958.78
2017-04-23T21:15:13.818Z,958.76
2017-04-23T21:16:13.805Z,958.8
2017-04-23T21:17:13.793Z,958.75
2017-04-23T21:18:13.780Z,958.76
2017-04-23T21:19:13.765Z,958.77
2017-04-23T21:20:13.752Z,958.76
2017-04-23T21:21:13.739Z,958.79
2017-04-23T21:22:13.725Z,958.78
2017-04-23T21:23:13.709Z,958.78
2017-04-23T21:24:13.696Z,958.79
2017-04-23T21:25:13.682Z,958.79
2017-04-23T21:26:13.669Z,958.75
2017-04-23T21:27:13.655Z,958.78
2017-04-23T21:28:13.641Z,958.73
2017-04-23T21:29:13.626Z,958.73
2017-04-23T21:30:13.613Z,958.73
2017-04-23T21:31:13.600Z,958.71
2017-04-23T21:32:13.586Z,958.75
2017-04-23T21:33:13.573Z,958.7
2017-04-23T21:34:13.558Z,958.7
2017-04-23T21:35:13.544Z,958.71
2017-04-23T21:36:13.532Z,958.69
2017-04-23T21:37:13.516Z,958.71
2017-04-23T21:38:13.503Z,958.68
2017-04-23T21:39:13.489Z,958.68
2017-04-23T21:40:13.479Z,958.71
2017-04-23T21:41:13.462Z,958.69
2017-04-23T21:42:13.447Z,958.74
2017-04-23T21:43:13.433Z,958.71
2017-04-23T21:44:13.420Z,958.76
2017-04-23T21:45:13.406Z,958.74
2017-04-23T21:46:13.392Z,958.76
2017-04-23T21:47:13.377Z,958.72
2017-04-23T21:48:13.365Z,958.71
2017-04-23T21:49:13.351Z,958.73
2017-04-23T21:50:13.335Z,958.7
2017-04-23T21:51:13.322Z,958.68
2017-04-23T21:52:13.309Z,958.74
2017-04-23T21:53:13.294Z,958.75
2017-04-23T21:54:13.281Z,958.71
2017-04-23T21:55:13.267Z,958.68
2017-04-23T21:56:13.252Z,958.69
2017-04-23T21:57:13.238Z,958.66
2017-04-23T21:58:13.225Z,958.74
2017-04-23T21:59:13.209Z,958.66
2017-04-23T22:00:13.197Z,958.66
2017-04-23T22:01:13.184Z,958.71
2017-04-23T22:02:13.170Z,958.65
2017-04-23T22:03:13.155Z,958.7
2017-04-23T22:04:13.140Z,958.69
2017-04-23T22:05:13.127Z,958.68
2017-04-23T22:06:13.114Z,958.67
2017-04-23T22:07:13.096Z,958.65
2017-04-23T22:08:13.083Z,958.66
2017-04-23T22:09:13.069Z,958.67
2017-04-23T22:10:13.056Z,958.66
2017-04-23T22:11:13.041Z,958.63
2017-04-23T22:12:13.029Z,958.56
2017-04-23T22:13:13.015Z,958.61
2017-04-23T22:14:13.000Z,958.63
2017-04-23T22:15:12.985Z,958.62
2017-04-23T22:16:12.970Z,958.63
2017-04-23T22:17:12.957Z,958.65
2017-04-23T22:18:12.942Z,958.64
2017-04-23T22:19:12.929Z,958.66
2017-04-23T22:20:12.915Z,958.67
2017-04-23T22:21:12.902Z,958.69
2017-04-23T22:22:12.887Z,958.65
2017-04-23T22:23:12.872Z,958.71
2017-04-23T22:24:12.857Z,958.67
2017-04-23T22:25:12.844Z,958.68
2017-04-23T22:26:12.830Z,958.66
2017-04-23T22:27:12.815Z,958.64
2017-04-23T22:28:12.802Z,958.64
2017-04-23T22:29:12.788Z,958.63
2017-04-23T22:30:12.773Z,958.65
2017-04-23T22:31:12.757Z,958.61
2017-04-23T22:32:12.745Z,958.63
2017-04-23T22:33:12.729Z,958.62
2017-04-23T22:34:12.716Z,958.63
2017-04-23T22:35:12.700Z,958.64
2017-04-23T22:36:12.685Z,958.6
2017-04-23T22:37:12.672Z,958.64
2017-04-23T22:38:12.656Z,958.64
2017-04-23T22:39:12.641Z,958.63
2017-04-23T22:40:12.626Z,958.61
2017-04-23T22:41:12.613Z,958.6
2017-04-23T22:42:12.597Z,958.61
2017-04-23T22:43:12.582Z,958.61
2017-04-23T22:44:12.567Z,958.55
2017-04-23T22:45:12.553Z,958.59
2017-04-23T22:46:12.539Z,958.54
2017-04-23T22:47:12.522Z,958.53
2017-04-23T22:48:12.536Z,958.54
2017-04-23T22:49:12.494Z,958.56
2017-04-23T22:50:12.478Z,958.58
2017-04-23T22:51:12.463Z,958.59
2017-04-23T22:52:12.448Z,958.58
2017-04-23T22:53:12.433Z,958.58
2017-04-23T22:54:12.417Z,958.57
2017-04-23T22:55:12.402Z,958.57
2017-04-23T22:56:12.388Z,958.64
2017-04-23T22:57:12.376Z,958.61
2017-04-23T22:58:12.358Z,958.61
2017-04-23T22:59:12.343Z,958.62
2017-04-23T23:00:12.328Z,958.6
2017-04-23T23:01:12.311Z,958.61
2017-04-23T23:02:12.298Z,958.61
2017-04-23T23:03:12.283Z,958.61
2017-04-23T23:04:12.268Z,958.61
2017-04-23T23:05:12.256Z,958.6
2017-04-23T23:06:12.237Z,958.57
2017-04-23T23:07:12.222Z,958.56
2017-04-23T23:08:12.206Z,958.57
2017-04-23T23:09:12.192Z,958.57
2017-04-23T23:10:12.177Z,958.56
2017-04-23T23:11:12.162Z,958.55
2017-04-23T23:12:12.145Z,958.53
2017-04-23T23:13:12.132Z,958.55
2017-04-23T23:14:12.118Z,958.51
2017-04-23T23:15:12.101Z,958.56
2017-04-23T23:16:12.086Z,958.52
2017-04-23T23:17:12.074Z,958.52
2017-04-23T23:18:12.057Z,958.52
2017-04-23T23:19:12.041Z,958.5
2017-04-23T23:20:12.025Z,958.5
2017-04-23T23:21:12.011Z,958.5
2017-04-23T23:22:11.996Z,958.52
2017-04-23T23:23:11.980Z,958.45
2017-04-23T23:24:11.966Z,958.47
2017-04-23T23:25:11.952Z,958.49
2017-04-23T23:26:11.939Z,958.43
2017-04-23T23:27:11.920Z,958.42
2017-04-23T23:28:11.906Z,958.44
2017-04-23T23:29:11.892Z,958.45
2017-04-23T23:30:11.875Z,958.44
2017-04-23T23:31:11.862Z,958.39
2017-04-23T23:32:11.847Z,958.44
2017-04-23T23:33:11.834Z,958.35
2017-04-23T23:34:11.816Z,958.3
2017-04-23T23:35:11.802Z,958.36
2017-04-23T23:36:11.789Z,958.33
2017-04-23T23:37:11.774Z,958.28
2017-04-23T23:38:11.759Z,958.27
2017-04-23T23:39:11.746Z,958.3
2017-04-23T23:40:11.730Z,958.29
2017-04-23T23:41:11.715Z,958.3
2017-04-23T23:42:11.700Z,958.27
2017-04-23T23:43:11.686Z,958.26
2017-04-23T23:44:11.673Z,958.29
2017-04-23T23:45:11.656Z,958.2
2017-04-23T23:46:11.642Z,958.2
2017-04-23T23:47:11.628Z,958.19
2017-04-23T23:48:11.612Z,958.2
2017-04-23T23:49:11.597Z,958.15
2017-04-23T23:50:11.583Z,958.13
2017-04-23T23:51:11.570Z,958.11
2017-04-23T23:52:11.554Z,958.16
2017-04-23T23:53:11.539Z,958.08
2017-04-23T23:54:11.525Z,958.15
2017-04-23T23:55:11.512Z,958.14
2017-04-23T23:56:11.497Z,958.1
2017-04-23T23:57:11.483Z,958.09
2017-04-23T23:58:11.468Z,958.08
2017-04-23T23:59:11.453Z,958.07
